createdAt,value
2019-05-28T00:01:56.169Z,15.20
2019-05-28T00:04:22.191Z,15.20
2019-05-28T00:06:48.223Z,15.20
2019-05-28T00:09:14.241Z,15.20
2019-05-28T00:11:40.291Z,15.20
2019-05-28T00:14:06.295Z,15.20
2019-05-28T00:16:32.339Z,15.20
2019-05-28T00:18:58.358Z,15.20
2019-05-28T00:21:24.400Z,15.30
2019-05-28T00:23:50.419Z,15.30
2019-05-28T00:26:16.467Z,15.30
2019-05-28T00:28:42.532Z,15.30
2019-05-28T00:31:08.579Z,15.30
2019-05-28T00:33:34.601Z,15.30
2019-05-28T00:36:00.632Z,15.30
2019-05-28T00:38:26.665Z,15.20
2019-05-28T00:40:52.702Z,15.20
2019-05-28T00:43:18.720Z,15.20
2019-05-28T00:45:44.730Z,15.10
2019-05-28T00:48:10.838Z,15.10
2019-05-28T00:50:36.951Z,15.10
2019-05-28T00:53:03.203Z,15.10
2019-05-28T00:55:29.219Z,15.00
2019-05-28T00:57:55.775Z,15.00
2019-05-28T01:00:43.659Z,15.00
2019-05-28T01:03:09.707Z,15.00
2019-05-28T01:05:35.736Z,15.00
2019-05-28T01:08:02.363Z,15.00
2019-05-28T01:10:28.371Z,15.00
2019-05-28T01:12:54.425Z,15.00
2019-05-28T01:15:20.432Z,15.00
2019-05-28T01:17:46.482Z,15.00
2019-05-28T01:20:12.898Z,15.10
2019-05-28T01:22:38.951Z,15.10
2019-05-28T01:25:06.765Z,15.10
2019-05-28T01:27:32.923Z,15.20
2019-05-28T01:29:58.935Z,15.20
2019-05-28T01:32:25.007Z,15.20
2019-05-28T01:34:51.002Z,15.10
2019-05-28T01:37:17.247Z,15.10
2019-05-28T01:39:43.371Z,15.00
2019-05-28T01:42:09.419Z,14.90
2019-05-28T01:44:35.431Z,14.90
2019-05-28T01:47:02.006Z,14.90
2019-05-28T01:49:28.063Z,14.90
2019-05-28T01:51:54.126Z,14.80
2019-05-28T01:54:20.143Z,14.80
2019-05-28T01:56:46.191Z,14.70
2019-05-28T01:59:12.196Z,14.70
2019-05-28T02:01:38.194Z,14.60
2019-05-28T02:04:04.244Z,14.60
2019-05-28T02:06:30.259Z,14.50
2019-05-28T02:08:56.303Z,14.50
2019-05-28T02:11:22.315Z,14.40
2019-05-28T02:13:48.386Z,14.40
2019-05-28T02:16:14.408Z,14.40
2019-05-28T02:18:40.447Z,14.40
2019-05-28T02:21:06.483Z,14.30
2019-05-28T02:23:32.530Z,14.40
2019-05-28T02:25:58.583Z,14.30
2019-05-28T02:28:24.653Z,14.30
2019-05-28T02:30:50.686Z,14.30
2019-05-28T02:33:16.716Z,14.30
2019-05-28T02:35:42.727Z,14.30
2019-05-28T02:38:08.767Z,14.30
2019-05-28T02:40:34.783Z,14.30
2019-05-28T02:43:01.254Z,14.30
2019-05-28T02:45:27.359Z,14.30
2019-05-28T02:47:53.454Z,14.30
2019-05-28T02:50:40.058Z,14.20
2019-05-28T02:53:06.202Z,14.30
2019-05-28T02:55:33.228Z,14.20
2019-05-28T02:57:59.368Z,14.20
2019-05-28T03:00:25.582Z,14.20
2019-05-28T03:02:52.334Z,14.10
2019-05-28T03:05:18.443Z,14.10
2019-05-28T03:07:45.390Z,13.90
2019-05-28T03:10:12.045Z,13.90
2019-05-28T03:12:38.163Z,13.80
2019-05-28T03:15:06.379Z,13.80
2019-05-28T03:17:34.331Z,13.80
2019-05-28T03:20:01.343Z,13.80
2019-05-28T03:22:29.856Z,13.80
2019-05-28T03:24:56.820Z,13.80
2019-05-28T03:27:22.824Z,13.80
2019-05-28T03:29:48.935Z,13.80
2019-05-28T03:32:15.048Z,13.80
2019-05-28T03:34:42.174Z,13.80
2019-05-28T03:37:10.203Z,13.80
2019-05-28T03:39:37.552Z,13.70
2019-05-28T03:42:03.555Z,13.70
2019-05-28T03:44:29.610Z,13.80
2019-05-28T03:46:55.614Z,13.70
2019-05-28T03:49:21.670Z,13.70
2019-05-28T03:51:47.675Z,13.70
2019-05-28T03:54:13.724Z,13.70
2019-05-28T03:56:39.742Z,13.70
2019-05-28T03:59:05.783Z,13.70
2019-05-28T04:01:31.790Z,13.70
2019-05-28T04:03:57.862Z,13.60
2019-05-28T04:06:23.971Z,13.60
2019-05-28T04:08:50.018Z,13.60
2019-05-28T04:11:16.130Z,13.60
2019-05-28T04:13:42.245Z,13.50
2019-05-28T04:16:08.286Z,13.60
2019-05-28T04:18:34.301Z,13.50
2019-05-28T04:21:00.359Z,13.50
2019-05-28T04:23:26.362Z,13.50
2019-05-28T04:25:52.425Z,13.50
2019-05-28T04:28:18.547Z,13.50
2019-05-28T04:30:44.597Z,13.50
2019-05-28T04:33:10.719Z,13.50
2019-05-28T04:35:36.759Z,13.50
2019-05-28T04:38:02.770Z,13.50
2019-05-28T04:40:28.980Z,13.50
2019-05-28T04:42:54.983Z,13.50
2019-05-28T04:45:21.021Z,13.50
2019-05-28T04:47:47.071Z,13.50
2019-05-28T04:50:13.783Z,13.50
2019-05-28T04:52:39.901Z,13.50
2019-05-28T04:55:06.023Z,13.50
2019-05-28T04:57:32.171Z,13.50
2019-05-28T04:59:58.190Z,13.50
2019-05-28T05:02:24.239Z,13.60
2019-05-28T05:04:50.455Z,13.60
2019-05-28T05:07:16.512Z,13.60
2019-05-28T05:09:42.519Z,13.60
2019-05-28T05:12:08.595Z,13.70
2019-05-28T05:14:34.615Z,13.70
2019-05-28T05:17:02.002Z,13.80
2019-05-28T05:19:28.030Z,13.90
2019-05-28T05:21:54.081Z,13.90
2019-05-28T05:24:20.125Z,14.00
2019-05-28T05:26:46.195Z,14.00
2019-05-28T05:29:12.235Z,14.10
2019-05-28T05:31:38.284Z,14.20
2019-05-28T05:34:04.316Z,14.30
2019-05-28T05:36:30.372Z,14.40
2019-05-28T05:38:56.496Z,14.40
2019-05-28T05:41:22.532Z,14.50
2019-05-28T05:43:48.534Z,14.60
2019-05-28T05:46:14.593Z,14.60
2019-05-28T05:48:40.606Z,14.60
2019-05-28T05:51:06.747Z,14.50
2019-05-28T05:53:32.759Z,14.60
2019-05-28T05:55:58.820Z,14.60
2019-05-28T05:58:24.832Z,14.70
2019-05-28T06:00:50.844Z,14.70
2019-05-28T06:03:16.919Z,14.70
2019-05-28T06:05:42.923Z,14.80
2019-05-28T06:08:08.995Z,14.70
2019-05-28T06:10:35.016Z,14.80
2019-05-28T06:13:02.072Z,14.90
2019-05-28T06:15:28.076Z,14.80
2019-05-28T06:17:54.124Z,14.70
2019-05-28T06:20:20.137Z,14.80
2019-05-28T06:22:46.179Z,14.90
2019-05-28T06:25:12.800Z,15.10
2019-05-28T06:27:38.847Z,15.20
2019-05-28T06:30:06.790Z,15.30
2019-05-28T06:32:34.535Z,15.60
2019-05-28T06:35:00.783Z,15.70
2019-05-28T06:37:26.827Z,15.90
2019-05-28T06:39:52.847Z,16.00
2019-05-28T06:42:18.888Z,16.00
2019-05-28T06:44:44.929Z,16.00
2019-05-28T06:47:11.100Z,16.00
2019-05-28T06:49:37.109Z,15.90
2019-05-28T06:52:03.179Z,15.80
2019-05-28T06:54:29.278Z,15.70
2019-05-28T06:56:55.333Z,15.70
2019-05-28T06:59:21.335Z,15.60
2019-05-28T07:01:47.387Z,15.60
2019-05-28T07:04:23.706Z,15.70
2019-05-28T07:06:41.484Z,15.70
2019-05-28T07:09:07.491Z,15.70
2019-05-28T07:11:33.603Z,15.80
2019-05-28T07:13:59.655Z,15.90
2019-05-28T07:16:25.659Z,16.00
2019-05-28T07:18:51.713Z,16.10
2019-05-28T07:21:17.719Z,16.20
2019-05-28T07:23:43.772Z,16.30
2019-05-28T07:26:09.879Z,16.40
2019-05-28T07:28:35.951Z,16.30
2019-05-28T07:31:02.017Z,16.30
2019-05-28T07:33:28.060Z,16.20
2019-05-28T07:35:54.071Z,16.30
2019-05-28T07:38:20.124Z,16.40
2019-05-28T07:40:46.139Z,16.50
2019-05-28T07:43:12.197Z,16.70
2019-05-28T07:45:38.603Z,16.70
2019-05-28T07:48:04.649Z,16.80
2019-05-28T07:50:30.680Z,17.00
2019-05-28T07:52:57.819Z,17.30
2019-05-28T07:55:23.834Z,17.20
2019-05-28T07:57:49.852Z,17.40
2019-05-28T08:00:19.707Z,17.60
2019-05-28T08:02:45.807Z,18.00
2019-05-28T08:05:16.868Z,18.10
2019-05-28T08:08:00.425Z,18.20
2019-05-28T08:10:29.313Z,18.20
2019-05-28T08:12:54.379Z,18.30
2019-05-28T08:15:20.460Z,18.20
2019-05-28T08:17:46.536Z,18.10
2019-05-28T08:20:12.758Z,18.00
2019-05-28T08:22:42.770Z,17.70
2019-05-28T08:25:23.519Z,17.70
2019-05-28T08:27:34.819Z,17.50
2019-05-28T08:30:04.836Z,17.30
2019-05-28T08:32:30.951Z,17.40
2019-05-28T08:35:05.608Z,17.50
2019-05-28T08:37:25.048Z,17.50
2019-05-28T08:39:51.118Z,17.40
2019-05-28T08:42:20.818Z,17.10
2019-05-28T08:44:45.141Z,16.80
2019-05-28T08:47:11.204Z,16.50
2019-05-28T08:49:37.232Z,16.30
2019-05-28T08:52:03.461Z,16.10
2019-05-28T08:54:29.491Z,16.00
2019-05-28T08:56:55.534Z,16.00
2019-05-28T08:59:21.531Z,16.20
2019-05-28T09:01:47.587Z,16.50
2019-05-28T09:04:13.580Z,16.70
2019-05-28T09:06:39.615Z,17.00
2019-05-28T09:09:05.837Z,17.10
2019-05-28T09:11:31.883Z,17.50
2019-05-28T09:13:57.895Z,17.90
2019-05-28T09:16:23.904Z,18.10
2019-05-28T09:18:49.974Z,18.10
2019-05-28T09:21:15.983Z,18.30
2019-05-28T09:23:42.068Z,18.40
2019-05-28T09:26:08.151Z,18.40
2019-05-28T09:28:34.197Z,18.40
2019-05-28T09:31:00.244Z,18.30
2019-05-28T09:33:26.395Z,18.60
2019-05-28T09:36:07.417Z,18.60
2019-05-28T09:38:20.468Z,18.50
2019-05-28T09:40:50.487Z,18.50
2019-05-28T09:43:14.527Z,18.60
2019-05-28T09:45:40.539Z,18.70
2019-05-28T09:48:06.629Z,18.60
2019-05-28T09:50:32.750Z,18.10
2019-05-28T09:52:58.810Z,18.00
2019-05-28T09:55:24.823Z,18.00
2019-05-28T09:57:50.995Z,18.00
2019-05-28T10:00:21.239Z,18.10
2019-05-28T10:02:47.816Z,18.40
2019-05-28T10:05:15.051Z,18.90
2019-05-28T10:07:41.075Z,19.20
2019-05-28T10:10:07.235Z,19.40
2019-05-28T10:12:33.235Z,19.40
2019-05-28T10:14:59.278Z,19.10
2019-05-28T10:17:25.283Z,19.20
2019-05-28T10:19:51.332Z,19.40
2019-05-28T10:22:17.335Z,19.70
2019-05-28T10:24:43.388Z,19.60
2019-05-28T10:27:09.403Z,19.70
2019-05-28T10:29:35.518Z,19.70
2019-05-28T10:32:02.564Z,19.80
2019-05-28T10:34:28.575Z,19.70
2019-05-28T10:36:54.623Z,19.60
2019-05-28T10:39:20.646Z,19.60
2019-05-28T10:41:46.683Z,19.50
2019-05-28T10:44:12.707Z,19.50
2019-05-28T10:46:38.755Z,19.50
2019-05-28T10:49:04.767Z,19.50
2019-05-28T10:51:30.816Z,19.40
2019-05-28T10:53:56.935Z,19.10
2019-05-28T10:56:23.304Z,18.40
2019-05-28T10:58:49.508Z,17.90
2019-05-28T11:01:15.553Z,17.60
2019-05-28T11:03:41.559Z,17.10
2019-05-28T11:06:07.620Z,16.90
2019-05-28T11:08:33.743Z,16.80
2019-05-28T11:10:59.774Z,16.80
2019-05-28T11:13:25.813Z,16.80
2019-05-28T11:15:51.852Z,17.10
2019-05-28T11:18:17.859Z,17.60
2019-05-28T11:20:43.923Z,18.00
2019-05-28T11:23:09.937Z,18.30
2019-05-28T11:25:36.003Z,18.60
2019-05-28T11:28:02.126Z,18.80
2019-05-28T11:30:28.335Z,18.90
2019-05-28T11:32:54.336Z,19.00
2019-05-28T11:35:20.820Z,18.80
2019-05-28T11:37:46.838Z,18.70
2019-05-28T11:40:13.258Z,18.60
2019-05-28T11:42:39.298Z,18.50
2019-05-28T11:45:09.965Z,18.30
2019-05-28T11:47:36.215Z,18.30
2019-05-28T11:50:07.770Z,18.30
2019-05-28T11:52:33.827Z,18.20
2019-05-28T11:54:59.847Z,18.10
2019-05-28T11:57:25.888Z,18.20
2019-05-28T11:59:51.912Z,18.30
2019-05-28T12:02:17.959Z,18.40
2019-05-28T12:04:44.034Z,18.70
2019-05-28T12:07:24.973Z,19.10
2019-05-28T12:09:38.055Z,19.40
2019-05-28T12:12:04.206Z,19.70
2019-05-28T12:14:30.238Z,19.90
2019-05-28T12:16:56.292Z,20.00
2019-05-28T12:19:22.304Z,20.20
2019-05-28T12:21:48.506Z,20.40
2019-05-28T12:24:14.601Z,20.40
2019-05-28T12:26:40.761Z,20.60
2019-05-28T12:29:07.025Z,20.90
2019-05-28T12:31:33.123Z,20.80
2019-05-28T12:33:59.212Z,20.90
2019-05-28T12:36:25.225Z,20.80
2019-05-28T12:38:51.263Z,20.20
2019-05-28T12:41:17.273Z,19.60
2019-05-28T12:43:43.320Z,18.80
2019-05-28T12:46:09.391Z,18.10
2019-05-28T12:48:35.767Z,17.90
2019-05-28T12:51:02.420Z,17.80
2019-05-28T12:53:48.178Z,17.80
2019-05-28T12:55:56.486Z,17.70
2019-05-28T12:58:40.483Z,17.80
2019-05-28T13:00:50.803Z,17.70
2019-05-28T13:03:16.936Z,17.80
2019-05-28T13:05:43.047Z,17.90
2019-05-28T13:08:10.626Z,17.90
2019-05-28T13:10:36.935Z,17.80
2019-05-28T13:13:03.451Z,17.70
2019-05-28T13:15:29.496Z,17.80
2019-05-28T13:17:55.520Z,17.80
2019-05-28T13:20:21.638Z,18.30
2019-05-28T13:22:47.688Z,18.70
2019-05-28T13:25:15.346Z,19.00
2019-05-28T13:27:41.334Z,19.00
2019-05-28T13:30:08.949Z,19.00
2019-05-28T13:32:35.214Z,19.00
2019-05-28T13:35:01.935Z,18.70
2019-05-28T13:37:28.192Z,18.40
2019-05-28T13:39:54.258Z,17.90
2019-05-28T13:42:20.261Z,17.50
2019-05-28T13:44:46.321Z,17.00
2019-05-28T13:47:29.992Z,16.80
2019-05-28T13:49:40.283Z,16.90
2019-05-28T13:52:12.172Z,17.20
2019-05-28T13:54:36.457Z,17.70
2019-05-28T13:57:02.594Z,18.30
2019-05-28T13:59:28.713Z,18.60
2019-05-28T14:01:54.777Z,18.60
2019-05-28T14:04:20.825Z,18.60
2019-05-28T14:06:46.869Z,18.50
2019-05-28T14:09:13.018Z,18.40
2019-05-28T14:11:39.034Z,18.30
2019-05-28T14:14:05.033Z,18.30
2019-05-28T14:16:31.103Z,18.50
2019-05-28T14:18:57.111Z,18.60
2019-05-28T14:21:23.160Z,18.90
2019-05-28T14:23:49.182Z,18.90
2019-05-28T14:26:15.247Z,18.70
2019-05-28T14:28:41.259Z,18.50
2019-05-28T14:31:07.376Z,18.30
2019-05-28T14:33:33.480Z,18.40
2019-05-28T14:35:59.582Z,18.30
2019-05-28T14:38:25.646Z,18.30
2019-05-28T14:40:52.692Z,18.20
2019-05-28T14:43:18.834Z,18.20
2019-05-28T14:45:44.903Z,18.40
2019-05-28T14:48:10.976Z,18.80
2019-05-28T14:50:37.040Z,19.20
2019-05-28T14:53:03.161Z,19.60
2019-05-28T14:55:29.222Z,19.90
2019-05-28T14:57:55.236Z,20.20
2019-05-28T15:00:22.926Z,20.30
2019-05-28T15:02:49.025Z,20.20
2019-05-28T15:05:15.525Z,19.80
2019-05-28T15:07:41.639Z,19.30
2019-05-28T15:10:10.816Z,18.80
2019-05-28T15:12:36.856Z,18.40
2019-05-28T15:15:05.292Z,18.00
2019-05-28T15:17:31.474Z,17.60
2019-05-28T15:19:57.570Z,17.50
2019-05-28T15:22:23.575Z,17.20
2019-05-28T15:24:50.058Z,16.80
2019-05-28T15:27:16.156Z,16.20
2019-05-28T15:29:42.205Z,15.90
2019-05-28T15:32:08.403Z,15.70
2019-05-28T15:34:34.409Z,15.80
2019-05-28T15:37:02.187Z,17.10
2019-05-28T15:39:39.286Z,19.20
2019-05-28T15:41:56.190Z,22.90
2019-05-28T15:44:24.457Z,26.30
2019-05-28T20:10:24.623Z,13.70
2019-05-28T20:12:50.663Z,13.50
2019-05-28T20:15:21.007Z,13.40
2019-05-28T20:17:46.240Z,13.30
2019-05-28T20:20:13.040Z,13.30
2019-05-28T20:22:39.056Z,13.20
2019-05-28T20:25:06.097Z,13.10
2019-05-28T20:27:32.147Z,13.10
2019-05-28T20:29:58.744Z,13.30
2019-05-28T20:32:24.843Z,13.10
2019-05-28T20:34:51.966Z,13.00
2019-05-28T20:37:17.977Z,13.00
2019-05-28T20:39:44.126Z,13.00
2019-05-28T20:42:18.516Z,12.90
2019-05-28T20:44:38.111Z,12.80
2019-05-28T20:47:06.963Z,12.70
2019-05-28T20:49:35.355Z,12.80
2019-05-28T20:52:01.417Z,12.70
2019-05-28T20:56:55.067Z,12.60
2019-05-28T20:59:21.851Z,12.50
2019-05-28T21:01:59.568Z,12.40
2019-05-28T21:04:25.605Z,12.10
2019-05-28T21:06:52.080Z,12.30
2019-05-28T21:09:18.259Z,12.50
2019-05-28T21:11:44.343Z,12.20
2019-05-28T21:21:30.621Z,12.10
2019-05-28T21:23:56.630Z,12.00
2019-05-28T21:26:22.903Z,11.90
2019-05-28T21:29:08.881Z,11.90
2019-05-28T21:31:35.051Z,11.90
2019-05-28T21:34:01.668Z,11.90
2019-05-28T21:36:27.792Z,11.80
2019-05-28T21:38:53.850Z,11.80
2019-05-28T21:41:19.887Z,11.80
2019-05-28T21:43:45.967Z,11.80
2019-05-28T21:46:12.015Z,11.70
2019-05-28T21:48:38.022Z,11.80
2019-05-28T21:51:04.070Z,11.80
2019-05-28T21:53:30.086Z,11.80
2019-05-28T21:55:57.128Z,11.80
2019-05-28T21:58:23.395Z,11.70
2019-05-28T22:01:04.030Z,11.70
2019-05-28T22:03:30.341Z,11.60
2019-05-28T22:05:57.770Z,11.60
2019-05-28T22:08:23.875Z,11.60
2019-05-28T22:10:49.891Z,11.50
2019-05-28T22:13:21.922Z,11.50
2019-05-28T22:15:43.968Z,11.50
2019-05-28T22:18:10.023Z,11.40
2019-05-28T22:20:36.048Z,11.40
2019-05-28T22:23:02.666Z,11.40
2019-05-28T22:25:28.913Z,11.30
2019-05-28T22:27:56.428Z,11.30
2019-05-28T22:30:22.914Z,11.30
2019-05-28T22:32:51.613Z,11.20
2019-05-28T22:35:39.432Z,11.10
2019-05-28T22:38:05.526Z,11.20
2019-05-28T22:40:31.675Z,11.10
2019-05-28T22:42:58.616Z,11.10
2019-05-28T22:47:51.219Z,10.90
2019-05-28T22:50:22.982Z,11.20
